Wetterdaten der Wetterstation 59969 Hallenberg

Letzte Wetterlage 26.05.2015 13:13
Wetterdiagramm
Tabellarische Darstellung
Datum Temperatur Windchill Feuchte Luftdruck Windrichtung Windstärke Niederschlag
26.05.2015 13:34 11,7 °C 11,7 °C 54 % 1017,4 hPa 0 l/m²
26.05.2015 13:13 11,2 °C 11,2 °C 57 % 1017,4 hPa 0 l/m²
26.05.2015 12:53 10,5 °C 10,5 °C 59 % 1017,4 hPa 0 l/m²
26.05.2015 12:32 9,5 °C 9,5 °C 60 % 1017,4 hPa 0 l/m²
26.05.2015 12:12 9,7 °C 9,7 °C 59 % 1017,4 hPa 0 l/m²
26.05.2015 11:52 10,1 °C 10,1 °C 60 % 1017,4 hPa 0 l/m²
26.05.2015 11:31 9,4 °C 9,4 °C 60 % 1016,4 hPa 0 l/m²
26.05.2015 11:10 9,8 °C 9,8 °C 60 % 1017,4 hPa 0 l/m²
26.05.2015 10:49 10,2 °C 10,2 °C 56 % 1016,4 hPa 0 l/m²
26.05.2015 10:29 10,0 °C 10,0 °C 59 % 1016,4 hPa 0 l/m²
26.05.2015 10:08 9,7 °C 9,7 °C 61 % 1016,4 hPa 0 l/m²
26.05.2015 09:48 9,1 °C 9,1 °C 69 % 1016,4 hPa 0 l/m²
26.05.2015 09:27 8,3 °C 8,3 °C 71 % 1015,4 hPa 0 l/m²
26.05.2015 09:06 8,6 °C 8,6 °C 73 % 1015,4 hPa 0 l/m²
26.05.2015 08:46 8,2 °C 8,2 °C 75 % 1015,4 hPa 0 l/m²
26.05.2015 08:25 7,9 °C 7,9 °C 77 % 1015,4 hPa 0 l/m²
26.05.2015 08:05 7,7 °C 7,7 °C 78 % 1015,4 hPa 0 l/m²
26.05.2015 07:44 7,6 °C 7,6 °C 79 % 1015,4 hPa 0 l/m²
26.05.2015 07:24 7,4 °C 7,4 °C 81 % 1014,4 hPa 0 l/m²
26.05.2015 07:03 7,3 °C 7,3 °C 84 % 1014,4 hPa 0 l/m²
26.05.2015 06:42 7,2 °C 7,2 °C 86 % 1014,4 hPa 0 l/m²
26.05.2015 06:22 7,1 °C 7,1 °C 85 % 1014,4 hPa 0 l/m²
26.05.2015 06:01 7,3 °C 7,3 °C 84 % 1014,4 hPa 0 l/m²
26.05.2015 05:41 7,4 °C 7,4 °C 83 % 1014,4 hPa 0 l/m²
26.05.2015 05:20 7,4 °C 7,4 °C 84 % 1014,4 hPa 0,3 l/m²
Neue Wetterwarnung

Neue Niederschlagsmeldung
Neue Meldung
Regen Liveticker
    sehr starker Regen/Gewitter
    starker Regen/Gewitter
    mäßiger bis starker Regen
    mäßiger Regen
    leichter bis mäßiger Regen
    kein Regen